Nireas — SX9654 — position and weather

sailwx.info

Track history (hours):
 
Tides and Currents Weather Stations Pressure Air Temp Water Temp Dewpoint Dewpoint Depression Visibility Wind Speed Wind Dir Waves Ship Positions

Nireas

Last reported at 2015-May-05 16:20 UTC. Time now 2015-May-05 22:22 UTC.
Position N 39°30' E 020°16'.

Length 61 m; draft 2.5 m.

Type: Passenger vessel. MMSI: 237470300.

Date/timePositionNaut miles runAvg speedWind from/ knotsBaromVisibWave heightAir tempDewpointWater temp
2015-May-05 16:20N 39°30' E 020°16'810.5
2015-May-05 15:34N 39°32' E 020°06'1010.2
2015-May-05 14:34N 39°38' E 019°54'0 0.0
2015-May-05 13:34N 39°38' E 019°54'3 2.9
2015-May-05 12:34N 39°37' E 019°58'1110.7
2015-May-05 11:33N 39°31' E 020°10'5 4.9
2015-May-05 10:34N 39°30' E 020°16'0 0.0
2015-May-05 09:34N 39°30' E 020°16'8 8.2
2015-May-05 08:34N 39°32' E 020°06'1010.3
2015-May-05 07:34N 39°38' E 019°54'0 0.0
2015-May-05 06:34N 39°38' E 019°54'9 8.7
2015-May-05 05:34N 39°34' E 020°04'10 0.7
2015-May-04 16:26N 39°30' E 020°16'910.4
2015-May-04 15:33N 39°33' E 020°04'9 9.1
2015-May-04 14:34N 39°38' E 019°54'0 0.0
2015-May-04 13:34N 39°38' E 019°54'3 3.3
2015-May-04 12:34N 39°36' E 019°58'1110.8
2015-May-04 11:34N 39°31' E 020°10'4 4.5
2015-May-04 10:33N 39°30' E 020°16'0 0.0
2015-May-04 09:33N 39°30' E 020°16'9 8.6
2015-May-04 08:33N 39°33' E 020°05'10 9.9
2015-May-04 07:34N 39°38' E 019°54'0 0.0
2015-May-04 06:34N 39°38' E 019°54'8 8.0
2015-May-04 05:34N 39°34' E 020°03'1010.2
2015-May-04 04:33N 39°30' E 020°16'0 0.0
2015-May-04 03:34N 39°30' E 020°16'0 0.0
2015-May-04 02:34N 39°30' E 020°16'0 0.0
2015-May-04 01:34N 39°30' E 020°16'0 0.0
2015-May-04 00:34N 39°30' E 020°16'0 0.0
2015-May-03 23:34N 39°30' E 020°16'0 0.0
2015-May-03 22:34N 39°30' E 020°16'0 0.0
2015-May-03 21:33N 39°30' E 020°16'0 0.0
2015-May-03 20:34N 39°30' E 020°16'0 0.0
2015-May-03 19:34N 39°30' E 020°16'0 0.0
2015-May-03 18:34N 39°30' E 020°16'0 0.0
2015-May-03 17:34N 39°30' E 020°16'0 0.0
2015-May-03 16:34N 39°30' E 020°16'9 8.5
2015-May-03 15:34N 39°33' E 020°05'10 9.9
2015-May-03 14:34N 39°38' E 019°54'0 0.0
2015-May-03 13:34N 39°38' E 019°54'3 3.3
2015-May-03 12:34N 39°37' E 019°58'1510.5
2015-May-03 11:10N 39°30' E 020°15'0 0.6
2015-May-03 10:33N 39°30' E 020°16'0 0.0
2015-May-03 09:34N 39°30' E 020°16'9 8.6
2015-May-03 08:34N 39°33' E 020°05'10 9.8
2015-May-03 07:34N 39°38' E 019°54'0 0.0
2015-May-03 06:34N 39°38' E 019°54'8 8.5
2015-May-03 05:34N 39°33' E 020°04'10 9.9
2015-May-03 04:33N 39°30' E 020°16'0 0.0
2015-May-03 03:33N 39°30' E 020°16'0 0.0
2015-May-03 02:24N 39°30' E 020°16'0 0.0
2015-May-03 01:27N 39°30' E 020°16'0 0.0
2015-May-03 00:32N 39°30' E 020°16'0 0.0
2015-May-02 23:33N 39°30' E 020°16'0 0.0
2015-May-02 22:31N 39°30' E 020°16'0 0.0
2015-May-02 21:32N 39°30' E 020°16'0 0.0
2015-May-02 20:34N 39°30' E 020°16'0 0.0
2015-May-02 19:33N 39°30' E 020°16'0 0.0
2015-May-02 18:32N 39°30' E 020°16'0 0.0
2015-May-02 17:31N 39°30' E 020°16'0 0.0
2015-May-02 16:33N 39°30' E 020°16'8 8.6
2015-May-02 15:34N 39°33' E 020°05'10 9.9
2015-May-02 14:34N 39°38' E 019°54'0 0.0
2015-May-02 13:34N 39°38' E 019°54'3 3.3
2015-May-02 12:33N 39°37' E 019°58'1210.9
2015-May-02 11:27N 39°30' E 020°11'3 3.7
2015-May-02 10:34N 39°30' E 020°16'0 0.0
2015-May-02 09:34N 39°30' E 020°16'8 8.0
2015-May-02 08:34N 39°32' E 020°06'1010.4
2015-May-02 07:34N 39°38' E 019°54'0 0.1
2015-May-02 06:34N 39°38' E 019°54'8 8.1
2015-May-02 05:34N 39°34' E 020°03'1010.1
2015-May-02 04:33N 39°30' E 020°16'0 0.1
2015-May-02 03:33N 39°30' E 020°16'0 0.0
2015-May-02 02:34N 39°30' E 020°16'0 0.0
2015-May-02 01:34N 39°30' E 020°16'0 0.0
2015-May-02 00:33N 39°30' E 020°16'0 0.0
2015-May-01 23:33N 39°30' E 020°16'0 0.0
2015-May-01 22:34N 39°30' E 020°16'0 0.0
2015-May-01 21:34N 39°30' E 020°16'0 0.0
2015-May-01 20:34N 39°30' E 020°16'0 0.0
2015-May-01 19:34N 39°30' E 020°16'0 0.0
2015-May-01 18:34N 39°30' E 020°16'0 0.0
2015-May-01 17:33N 39°30' E 020°16'0 0.0
2015-May-01 16:34N 39°30' E 020°16'8 8.3
2015-May-01 15:34N 39°32' E 020°06'1010.2
2015-May-01 14:34N 39°38' E 019°54'0 0.0
2015-May-01 13:34N 39°38' E 019°54'3 3.3
2015-May-01 12:33N 39°36' E 019°58'1410.5
2015-May-01 11:12N 39°30' E 020°15'1 1.2
2015-May-01 10:33N 39°30' E 020°16'0 0.0
2015-May-01 09:33N 39°30' E 020°16'8 7.9
2015-May-01 08:34N 39°32' E 020°06'1010.5
2015-May-01 07:34N 39°38' E 019°55'0 0.2
2015-May-01 06:34N 39°38' E 019°54'8 8.0
2015-May-01 05:34N 39°34' E 020°03'1010.3
2015-May-01 04:33N 39°30' E 020°16'0 0.0
2015-May-01 03:34N 39°30' E 020°16'0 0.0
2015-May-01 02:33N 39°30' E 020°16'0 0.0
2015-May-01 01:33N 39°30' E 020°16'0 0.0
2015-May-01 00:33N 39°30' E 020°16'0 0.0
2015-Apr-30 23:33N 39°30' E 020°16'0 0.0
2015-Apr-30 22:33N 39°30' E 020°16'0 0.0
2015-Apr-30 21:33N 39°30' E 020°16'0 0.0
2015-Apr-30 20:34N 39°30' E 020°16'0 0.0
2015-Apr-30 19:33N 39°30' E 020°16'0 0.0
2015-Apr-30 18:33N 39°30' E 020°16'0 0.0
2015-Apr-30 17:34N 39°30' E 020°16'18 1.8
2015-Apr-30 07:22N 39°38' E 019°54'0 0.0
2015-Apr-30 06:34N 39°38' E 019°54'8 8.4
2015-Apr-30 05:34N 39°33' E 020°04'10 2.5
2015-Apr-30 01:31N 39°30' E 020°16'0 0.0
2015-Apr-29 17:31N 39°30' E 020°16'0 0.0
2015-Apr-29 16:33N 39°30' E 020°16'0 0.1
2015-Apr-29 15:26N 39°30' E 020°16'7 8.0
2015-Apr-29 14:33N 39°23' E 020°12'11 9.8
2015-Apr-29 13:28N 39°13' E 020°12'0 0.4
2015-Apr-29 12:25N 39°12' E 020°11'8 7.9
2015-Apr-29 11:26N 39°20' E 020°14'9 9.7
2015-Apr-29 10:31N 39°29' E 020°12'3 3.1
2015-Apr-29 09:33N 39°30' E 020°16'11 9.1
2015-Apr-29 08:18N 39°34' E 020°02'7 9.5
2015-Apr-29 07:34N 39°38' E 019°54'0 0.0
2015-Apr-29 06:34N 39°38' E 019°54'18 1.1
2015-Apr-28 13:09N 39°30' E 020°16'0 0.0
2015-Apr-28 09:19N 39°30' E 020°16'810.4
2015-Apr-28 08:34N 39°33' E 020°06'1010.4
2015-Apr-28 07:34N 39°38' E 019°54'0 0.1
2015-Apr-28 06:34N 39°38' E 019°54'8 8.4
2015-Apr-28 05:34N 39°33' E 020°03'10 0.7
2015-Apr-27 15:33N 39°30' E 020°16'4 4.3
2015-Apr-27 14:32N 39°27' E 020°12'1210.9
2015-Apr-27 13:26N 39°15' E 020°12'3 3.1
2015-Apr-27 12:34N 39°12' E 020°11'6 5.6
2015-Apr-27 11:33N 39°18' E 020°12'1110.7
2015-Apr-27 10:32N 39°29' E 020°12'3 3.0
2015-Apr-27 09:34N 39°30' E 020°16'8 8.3
2015-Apr-27 08:34N 39°32' E 020°06'1010.1
2015-Apr-27 07:34N 39°38' E 019°54'0 0.0
2015-Apr-27 06:34N 39°38' E 019°54'8 8.3
2015-Apr-27 05:34N 39°34' E 020°04'10 0.7
2015-Apr-26 15:33N 39°30' E 020°16'4 4.0
2015-Apr-26 14:27N 39°27' E 020°12'1310.7
2015-Apr-26 13:17N 39°14' E 020°12'2 3.0
2015-Apr-26 12:34N 39°12' E 020°11'5 5.0
2015-Apr-26 11:34N 39°17' E 020°12'1210.8
2015-Apr-26 10:29N 39°29' E 020°12'3 3.2
2015-Apr-26 09:34N 39°30' E 020°16'8 8.0
2015-Apr-26 08:34N 39°32' E 020°06'1010.4
2015-Apr-26 07:34N 39°38' E 019°54'0 0.1
2015-Apr-26 06:34N 39°38' E 019°54'8 7.5
2015-Apr-26 05:34N 39°34' E 020°03'1110.7
2015-Apr-26 04:34N 39°30' E 020°16'  
Track history (hours):
 
Tides and Currents Weather Stations Pressure Air Temp Water Temp Dewpoint Dewpoint Depression Visibility Wind Speed Wind Dir Waves Ship Positions

Nireas

Last reported at 2015-May-05 16:20 UTC. Time now 2015-May-05 22:22 UTC.
Position N 39°30' E 020°16'.

Length 61 m; draft 2.5 m.

Type: Passenger vessel. MMSI: 237470300.

Date/timePositionNaut miles runAvg speedWind from/ knotsBaromVisibWave heightAir tempDewpointWater temp
2015-May-05 16:20N 39°30' E 020°16'810.5
2015-May-05 15:34N 39°32' E 020°06'1010.2
2015-May-05 14:34N 39°38' E 019°54'0 0.0
2015-May-05 13:34N 39°38' E 019°54'3 2.9
2015-May-05 12:34N 39°37' E 019°58'1110.7
2015-May-05 11:33N 39°31' E 020°10'5 4.9
2015-May-05 10:34N 39°30' E 020°16'0 0.0
2015-May-05 09:34N 39°30' E 020°16'8 8.2
2015-May-05 08:34N 39°32' E 020°06'1010.3
2015-May-05 07:34N 39°38' E 019°54'0 0.0
2015-May-05 06:34N 39°38' E 019°54'9 8.7
2015-May-05 05:34N 39°34' E 020°04'10 0.7
2015-May-04 16:26N 39°30' E 020°16'910.4
2015-May-04 15:33N 39°33' E 020°04'9 9.1
2015-May-04 14:34N 39°38' E 019°54'0 0.0
2015-May-04 13:34N 39°38' E 019°54'3 3.3
2015-May-04 12:34N 39°36' E 019°58'1110.8
2015-May-04 11:34N 39°31' E 020°10'4 4.5
2015-May-04 10:33N 39°30' E 020°16'0 0.0
2015-May-04 09:33N 39°30' E 020°16'9 8.6
2015-May-04 08:33N 39°33' E 020°05'10 9.9
2015-May-04 07:34N 39°38' E 019°54'0 0.0
2015-May-04 06:34N 39°38' E 019°54'8 8.0
2015-May-04 05:34N 39°34' E 020°03'1010.2
2015-May-04 04:33N 39°30' E 020°16'0 0.0
2015-May-04 03:34N 39°30' E 020°16'0 0.0
2015-May-04 02:34N 39°30' E 020°16'0 0.0
2015-May-04 01:34N 39°30' E 020°16'0 0.0
2015-May-04 00:34N 39°30' E 020°16'0 0.0
2015-May-03 23:34N 39°30' E 020°16'0 0.0
2015-May-03 22:34N 39°30' E 020°16'0 0.0
2015-May-03 21:33N 39°30' E 020°16'0 0.0
2015-May-03 20:34N 39°30' E 020°16'0 0.0
2015-May-03 19:34N 39°30' E 020°16'0 0.0
2015-May-03 18:34N 39°30' E 020°16'0 0.0
2015-May-03 17:34N 39°30' E 020°16'0 0.0
2015-May-03 16:34N 39°30' E 020°16'9 8.5
2015-May-03 15:34N 39°33' E 020°05'10 9.9
2015-May-03 14:34N 39°38' E 019°54'0 0.0
2015-May-03 13:34N 39°38' E 019°54'3 3.3
2015-May-03 12:34N 39°37' E 019°58'1510.5
2015-May-03 11:10N 39°30' E 020°15'0 0.6
2015-May-03 10:33N 39°30' E 020°16'0 0.0
2015-May-03 09:34N 39°30' E 020°16'9 8.6
2015-May-03 08:34N 39°33' E 020°05'10 9.8
2015-May-03 07:34N 39°38' E 019°54'0 0.0
2015-May-03 06:34N 39°38' E 019°54'8 8.5
2015-May-03 05:34N 39°33' E 020°04'10 9.9
2015-May-03 04:33N 39°30' E 020°16'0 0.0
2015-May-03 03:33N 39°30' E 020°16'0 0.0
2015-May-03 02:24N 39°30' E 020°16'0 0.0
2015-May-03 01:27N 39°30' E 020°16'0 0.0
2015-May-03 00:32N 39°30' E 020°16'0 0.0
2015-May-02 23:33N 39°30' E 020°16'0 0.0
2015-May-02 22:31N 39°30' E 020°16'0 0.0
2015-May-02 21:32N 39°30' E 020°16'0 0.0
2015-May-02 20:34N 39°30' E 020°16'0 0.0
2015-May-02 19:33N 39°30' E 020°16'0 0.0
2015-May-02 18:32N 39°30' E 020°16'0 0.0
2015-May-02 17:31N 39°30' E 020°16'0 0.0
2015-May-02 16:33N 39°30' E 020°16'8 8.6
2015-May-02 15:34N 39°33' E 020°05'10 9.9
2015-May-02 14:34N 39°38' E 019°54'0 0.0
2015-May-02 13:34N 39°38' E 019°54'3 3.3
2015-May-02 12:33N 39°37' E 019°58'1210.9
2015-May-02 11:27N 39°30' E 020°11'3 3.7
2015-May-02 10:34N 39°30' E 020°16'0 0.0
2015-May-02 09:34N 39°30' E 020°16'8 8.0
2015-May-02 08:34N 39°32' E 020°06'1010.4
2015-May-02 07:34N 39°38' E 019°54'0 0.1
2015-May-02 06:34N 39°38' E 019°54'8 8.1
2015-May-02 05:34N 39°34' E 020°03'1010.1
2015-May-02 04:33N 39°30' E 020°16'0 0.1
2015-May-02 03:33N 39°30' E 020°16'0 0.0
2015-May-02 02:34N 39°30' E 020°16'0 0.0
2015-May-02 01:34N 39°30' E 020°16'0 0.0
2015-May-02 00:33N 39°30' E 020°16'0 0.0
2015-May-01 23:33N 39°30' E 020°16'0 0.0
2015-May-01 22:34N 39°30' E 020°16'0 0.0
2015-May-01 21:34N 39°30' E 020°16'0 0.0
2015-May-01 20:34N 39°30' E 020°16'0 0.0
2015-May-01 19:34N 39°30' E 020°16'0 0.0
2015-May-01 18:34N 39°30' E 020°16'0 0.0
2015-May-01 17:33N 39°30' E 020°16'0 0.0
2015-May-01 16:34N 39°30' E 020°16'8 8.3
2015-May-01 15:34N 39°32' E 020°06'1010.2
2015-May-01 14:34N 39°38' E 019°54'0 0.0
2015-May-01 13:34N 39°38' E 019°54'3 3.3
2015-May-01 12:33N 39°36' E 019°58'1410.5
2015-May-01 11:12N 39°30' E 020°15'1 1.2
2015-May-01 10:33N 39°30' E 020°16'0 0.0
2015-May-01 09:33N 39°30' E 020°16'8 7.9
2015-May-01 08:34N 39°32' E 020°06'1010.5
2015-May-01 07:34N 39°38' E 019°55'0 0.2
2015-May-01 06:34N 39°38' E 019°54'8 8.0
2015-May-01 05:34N 39°34' E 020°03'1010.3
2015-May-01 04:33N 39°30' E 020°16'0 0.0
2015-May-01 03:34N 39°30' E 020°16'0 0.0
2015-May-01 02:33N 39°30' E 020°16'0 0.0
2015-May-01 01:33N 39°30' E 020°16'0 0.0
2015-May-01 00:33N 39°30' E 020°16'0 0.0
2015-Apr-30 23:33N 39°30' E 020°16'0 0.0
2015-Apr-30 22:33N 39°30' E 020°16'0 0.0
2015-Apr-30 21:33N 39°30' E 020°16'0 0.0
2015-Apr-30 20:34N 39°30' E 020°16'0 0.0
2015-Apr-30 19:33N 39°30' E 020°16'0 0.0
2015-Apr-30 18:33N 39°30' E 020°16'0 0.0
2015-Apr-30 17:34N 39°30' E 020°16'18 1.8
2015-Apr-30 07:22N 39°38' E 019°54'0 0.0
2015-Apr-30 06:34N 39°38' E 019°54'8 8.4
2015-Apr-30 05:34N 39°33' E 020°04'10 2.5
2015-Apr-30 01:31N 39°30' E 020°16'0 0.0
2015-Apr-29 17:31N 39°30' E 020°16'0 0.0
2015-Apr-29 16:33N 39°30' E 020°16'0 0.1
2015-Apr-29 15:26N 39°30' E 020°16'7 8.0
2015-Apr-29 14:33N 39°23' E 020°12'11 9.8
2015-Apr-29 13:28N 39°13' E 020°12'0 0.4
2015-Apr-29 12:25N 39°12' E 020°11'8 7.9
2015-Apr-29 11:26N 39°20' E 020°14'9 9.7
2015-Apr-29 10:31N 39°29' E 020°12'3 3.1
2015-Apr-29 09:33N 39°30' E 020°16'11 9.1
2015-Apr-29 08:18N 39°34' E 020°02'7 9.5
2015-Apr-29 07:34N 39°38' E 019°54'0 0.0
2015-Apr-29 06:34N 39°38' E 019°54'18 1.1
2015-Apr-28 13:09N 39°30' E 020°16'0 0.0
2015-Apr-28 09:19N 39°30' E 020°16'810.4
2015-Apr-28 08:34N 39°33' E 020°06'1010.4
2015-Apr-28 07:34N 39°38' E 019°54'0 0.1
2015-Apr-28 06:34N 39°38' E 019°54'8 8.4
2015-Apr-28 05:34N 39°33' E 020°03'10 0.7
2015-Apr-27 15:33N 39°30' E 020°16'4 4.3
2015-Apr-27 14:32N 39°27' E 020°12'1210.9
2015-Apr-27 13:26N 39°15' E 020°12'3 3.1
2015-Apr-27 12:34N 39°12' E 020°11'6 5.6
2015-Apr-27 11:33N 39°18' E 020°12'1110.7
2015-Apr-27 10:32N 39°29' E 020°12'3 3.0
2015-Apr-27 09:34N 39°30' E 020°16'8 8.3
2015-Apr-27 08:34N 39°32' E 020°06'1010.1
2015-Apr-27 07:34N 39°38' E 019°54'0 0.0
2015-Apr-27 06:34N 39°38' E 019°54'8 8.3
2015-Apr-27 05:34N 39°34' E 020°04'10 0.7
2015-Apr-26 15:33N 39°30' E 020°16'4 4.0
2015-Apr-26 14:27N 39°27' E 020°12'1310.7
2015-Apr-26 13:17N 39°14' E 020°12'2 3.0
2015-Apr-26 12:34N 39°12' E 020°11'5 5.0
2015-Apr-26 11:34N 39°17' E 020°12'1210.8
2015-Apr-26 10:29N 39°29' E 020°12'3 3.2
2015-Apr-26 09:34N 39°30' E 020°16'8 8.0
2015-Apr-26 08:34N 39°32' E 020°06'1010.4
2015-Apr-26 07:34N 39°38' E 019°54'0 0.1
2015-Apr-26 06:34N 39°38' E 019°54'8 7.5
2015-Apr-26 05:34N 39°34' E 020°03'1110.7
2015-Apr-26 04:34N 39°30' E 020°16'  

Dump ship's entire track history